This is the latest recevied weather packets stored in our database for station/object SQ5OUZ-8. If no packets are shown the sender has not sent any weather packets the latest 10 day(s).
| Time | Temp. | Humidity | Pressure | Rain* | Wind** | Luminosity | Snow |
|---|---|---|---|---|---|---|---|
| 1777836285 | 19.44° C | 30% | 1016 hPa | - | - | - | - |
| 1777835324 | 20° C | 29% | 1015 hPa | - | - | - | - |
| 1777834137 | 20.56° C | 28% | 1015 hPa | - | - | - | - |
| 1777833034 | 21.11° C | 27% | 1015 hPa | - | - | - | - |
| 1777831914 | 22.22° C | 26% | 1015 hPa | - | - | - | - |
| 1777830835 | 22.78° C | 24% | 1015 hPa | - | - | - | - |
| 1777829685 | 23.33° C | 24% | 1015 hPa | - | - | - | - |
| 1777828596 | 24.44° C | 21% | 1015 hPa | - | - | - | - |
| 1777827641 | 25° C | 21% | 1015 hPa | - | - | - | - |
| 1777826541 | 25.56° C | 19% | 1015 hPa | - | - | - | - |
| 1777825377 | 26.67° C | 19% | 1015 hPa | - | - | - | - |
| 1777824296 | 29.44° C | 15% | 1015 hPa | - | - | - | - |
| 1777823133 | 30° C | 16% | 1015 hPa | - | - | - | - |
| 1777822064 | 30° C | 16% | 1015 hPa | - | - | - | - |
| 1777821035 | 31.11° C | 16% | 1015 hPa | - | - | - | - |
| 1777820078 | 30° C | 16% | 1015 hPa | - | - | - | - |
| 1777819087 | 30° C | 16% | 1015 hPa | - | - | - | - |
| 1777817898 | 30.56° C | 16% | 1015 hPa | - | - | - | - |
| 1777816864 | 32.22° C | 14% | 1016 hPa | - | - | - | - |
| 1777815815 | 32.78° C | 15% | 1016 hPa | - | - | - | - |
| 1777814668 | 31.11° C | 17% | 1016 hPa | - | - | - | - |
| 1777813644 | 30.56° C | 17% | 1016 hPa | - | - | - | - |
| 1777812545 | 30° C | 18% | 1017 hPa | - | - | - | - |
| 1777811547 | 30° C | 18% | 1017 hPa | - | - | - | - |
| 1777810457 | 29.44° C | 18% | 1017 hPa | - | - | - | - |
* Rain since midnight (hover to see other rain measurements)
** Current wind speed in m/s (hover to see current wind gust speed)